createdAt,value
2022-08-20T00:04:24.429Z,97542.69
2022-08-20T00:09:26.542Z,97538.69
2022-08-20T00:14:31.984Z,97539.84
2022-08-20T00:19:35.996Z,97539.84
2022-08-20T00:24:38.195Z,97543.28
2022-08-20T00:29:40.099Z,97546.69
2022-08-20T00:34:42.600Z,97547.25
2022-08-20T00:39:44.956Z,97545.91
2022-08-20T00:44:47.809Z,97555.84
2022-08-20T00:49:49.640Z,97557.00
2022-08-20T00:54:59.665Z,97554.47
2022-08-20T01:00:04.828Z,97555.47
2022-08-20T01:05:09.401Z,97558.13
2022-08-20T01:10:20.131Z,97562.09
2022-08-20T01:15:30.843Z,97568.63
2022-08-20T01:20:46.774Z,97562.69
2022-08-20T01:26:04.173Z,97562.47
2022-08-20T01:31:08.785Z,97559.03
2022-08-20T01:36:12.881Z,97551.38
2022-08-20T01:41:36.199Z,97549.31
2022-08-20T01:46:43.969Z,97558.59
2022-08-20T01:51:46.520Z,97565.88
2022-08-20T01:57:04.450Z,97557.19
2022-08-20T02:02:07.133Z,97574.00
2022-08-20T02:07:15.291Z,97573.09
2022-08-20T02:12:18.821Z,97576.41
2022-08-20T02:17:23.527Z,97571.28
2022-08-20T02:22:31.361Z,97580.44
2022-08-20T02:27:33.326Z,97589.91
2022-08-20T02:32:37.862Z,97586.00
2022-08-20T02:37:42.145Z,97584.31
2022-08-20T02:42:44.285Z,97584.09
2022-08-20T02:47:46.920Z,97588.75
2022-08-20T02:52:48.836Z,97580.13
2022-08-20T02:57:59.968Z,97581.59
2022-08-20T03:03:02.601Z,97589.69
2022-08-20T03:08:07.133Z,97590.22
2022-08-20T03:13:12.563Z,97589.84
2022-08-20T03:18:15.372Z,97579.69
2022-08-20T03:23:19.273Z,97574.13
2022-08-20T03:28:21.172Z,97578.13
2022-08-20T03:33:24.213Z,97583.59
2022-08-20T03:38:32.818Z,97592.59
2022-08-20T03:43:35.661Z,97600.75
2022-08-20T03:48:37.741Z,97592.06
2022-08-20T03:53:39.575Z,97590.53
2022-08-20T03:58:41.417Z,97606.75
2022-08-20T04:03:43.385Z,97613.41
2022-08-20T04:08:45.221Z,97618.41
2022-08-20T04:13:47.088Z,97621.84
2022-08-20T04:19:01.743Z,97614.44
2022-08-20T04:24:05.883Z,97622.63
2022-08-20T04:29:07.953Z,97621.81
2022-08-20T04:34:09.816Z,97635.47
2022-08-20T04:39:11.658Z,97636.28
2022-08-20T04:44:13.731Z,97643.31
2022-08-20T04:49:15.704Z,97637.09
2022-08-20T04:54:17.511Z,97638.47
2022-08-20T04:59:19.643Z,97637.88
2022-08-20T05:04:21.458Z,97646.34
2022-08-20T05:09:23.267Z,97652.19
2022-08-20T05:14:25.087Z,97653.88
2022-08-20T05:19:29.117Z,97656.97
2022-08-20T05:24:31.006Z,97657.84
2022-08-20T05:29:32.811Z,97647.41
2022-08-20T05:34:34.802Z,97658.13
2022-08-20T05:39:37.603Z,97658.38
2022-08-20T05:44:39.594Z,97651.28
2022-08-20T05:49:41.726Z,97653.72
2022-08-20T05:54:43.543Z,97659.78
2022-08-20T05:59:45.894Z,97660.75
2022-08-20T06:04:47.710Z,97659.34
2022-08-20T06:09:58.228Z,97672.25
2022-08-20T06:15:00.137Z,97672.63
2022-08-20T06:20:09.199Z,97679.66
2022-08-20T06:25:11.655Z,97680.66
2022-08-20T06:30:15.467Z,97680.81
2022-08-20T06:35:20.025Z,97696.38
2022-08-20T06:40:25.675Z,97696.38
2022-08-20T06:45:30.275Z,97708.28
2022-08-20T06:50:43.208Z,97709.09
2022-08-20T06:55:54.110Z,97707.28
2022-08-20T07:00:55.963Z,97689.31
2022-08-20T07:05:58.036Z,97691.63
2022-08-20T07:11:00.162Z,97703.19
2022-08-20T07:16:05.518Z,97708.66
2022-08-20T07:21:08.452Z,97710.00
2022-08-20T07:26:10.852Z,97712.75
2022-08-20T07:31:31.581Z,97707.00
2022-08-20T07:36:36.678Z,97719.41
2022-08-20T07:41:38.591Z,97715.63
2022-08-20T07:46:40.438Z,97724.00
2022-08-20T07:51:42.463Z,97729.75
2022-08-20T07:56:44.275Z,97720.25
2022-08-20T08:01:46.257Z,97726.97
2022-08-20T08:06:48.165Z,97736.78
2022-08-20T08:11:50.636Z,97728.09
2022-08-20T08:16:59.074Z,97724.91
2022-08-20T08:22:00.896Z,97733.97
2022-08-20T08:27:02.867Z,97737.06
2022-08-20T08:32:06.006Z,97743.81
2022-08-20T08:37:07.830Z,97750.34
2022-08-20T08:42:37.945Z,97758.34
2022-08-20T08:47:43.459Z,97765.81
2022-08-20T08:52:47.204Z,97754.91
2022-08-20T08:57:49.911Z,97752.75
2022-08-20T09:03:00.892Z,97755.00
2022-08-20T09:08:07.262Z,97752.25
2022-08-20T09:13:09.234Z,97751.25
2022-08-20T09:18:11.037Z,97761.69
2022-08-20T09:23:12.861Z,97755.28
2022-08-20T09:28:14.751Z,97754.88
2022-08-20T09:33:16.806Z,97757.31
2022-08-20T09:38:18.963Z,97762.81
2022-08-20T09:43:23.030Z,97757.41
2022-08-20T09:48:31.995Z,97757.50
2022-08-20T09:53:34.620Z,97753.31
2022-08-20T09:58:54.354Z,97747.09
2022-08-20T10:03:55.969Z,97752.38
2022-08-20T10:08:57.648Z,97756.28
2022-08-20T10:13:59.353Z,97760.13
2022-08-20T10:19:01.104Z,97769.50
2022-08-20T10:24:03.174Z,97773.00
2022-08-20T10:29:04.779Z,97772.56
2022-08-20T10:34:06.859Z,97771.16
2022-08-20T10:39:08.868Z,97772.63
2022-08-20T10:44:10.520Z,97772.13
2022-08-20T10:49:13.168Z,97759.06
2022-08-20T10:54:15.518Z,97771.50
2022-08-20T10:59:17.187Z,97768.56
2022-08-20T11:04:18.831Z,97783.63
2022-08-20T11:09:20.481Z,97795.09
2022-08-20T11:14:22.202Z,97783.22
2022-08-20T11:19:23.837Z,97783.06
2022-08-20T11:24:25.466Z,97792.28
2022-08-20T11:29:30.015Z,97789.16
2022-08-20T11:34:35.122Z,97794.09
2022-08-20T11:39:41.621Z,97788.63
2022-08-20T11:44:43.683Z,97784.69
2022-08-20T11:49:45.345Z,97790.44
2022-08-20T11:54:46.951Z,97793.75
2022-08-20T11:59:50.707Z,97795.66
2022-08-20T12:04:52.331Z,97801.91
2022-08-20T12:09:54.292Z,97804.31
2022-08-20T12:14:55.940Z,97796.63
2022-08-20T12:19:59.622Z,97794.16
2022-08-20T12:25:01.366Z,97795.00
2022-08-20T12:30:07.127Z,97804.19
2022-08-20T12:35:10.449Z,97801.25
2022-08-20T12:40:16.960Z,97809.97
2022-08-20T12:45:23.161Z,97800.09
2022-08-20T12:50:30.923Z,97810.69
2022-08-20T12:55:33.837Z,97815.63
2022-08-20T13:00:44.150Z,97815.66
2022-08-20T13:05:49.057Z,97813.38
2022-08-20T13:10:50.689Z,97806.53
2022-08-20T13:15:52.424Z,97812.53
2022-08-20T13:20:54.056Z,97804.00
2022-08-20T13:25:58.176Z,97800.81
2022-08-20T13:31:02.007Z,97803.56
2022-08-20T13:36:03.968Z,97805.16
2022-08-20T13:41:05.731Z,97803.25
2022-08-20T13:46:07.457Z,97790.75
2022-08-20T13:51:09.147Z,97793.81
2022-08-20T13:56:10.805Z,97790.69
2022-08-20T14:01:12.819Z,97791.66
2022-08-20T14:06:14.474Z,97788.13
2022-08-20T14:11:17.816Z,97785.03
2022-08-20T14:16:27.406Z,97785.63
2022-08-20T14:21:39.266Z,97774.38
2022-08-20T14:26:40.864Z,97783.53
2022-08-20T14:31:42.545Z,97796.53
2022-08-20T14:36:44.198Z,97795.00
2022-08-20T14:41:49.351Z,97793.28
2022-08-20T14:46:50.952Z,97799.03
2022-08-20T14:51:52.541Z,97785.59
2022-08-20T14:56:54.872Z,97786.38
2022-08-20T15:01:56.907Z,97790.16
2022-08-20T15:06:59.090Z,97783.25
2022-08-20T15:12:09.612Z,97781.53
2022-08-20T15:17:12.386Z,97774.63
2022-08-20T15:22:14.185Z,97771.28
2022-08-20T15:27:22.294Z,97760.34
2022-08-20T15:32:24.370Z,97761.78
2022-08-20T15:37:26.352Z,97763.16
2022-08-20T15:42:28.089Z,97771.97
2022-08-20T15:47:34.086Z,97788.31
2022-08-20T15:52:42.106Z,97783.84
2022-08-20T15:57:55.603Z,97783.78
2022-08-20T16:03:30.116Z,97783.22
2022-08-20T16:09:07.111Z,97783.81
2022-08-20T16:14:19.540Z,97780.72
2022-08-20T16:19:27.131Z,97785.59
2022-08-20T16:24:28.867Z,97798.59
2022-08-20T16:30:00.167Z,97798.44
2022-08-20T16:35:26.313Z,97805.69
2022-08-20T16:40:49.898Z,97806.31
2022-08-20T16:46:02.028Z,97814.50
2022-08-20T16:51:09.345Z,97816.94
2022-08-20T16:56:11.011Z,97821.34
2022-08-20T17:01:14.964Z,97816.81
2022-08-20T17:06:28.341Z,97821.06
2022-08-20T17:11:32.992Z,97823.16
2022-08-20T17:16:51.150Z,97820.41
2022-08-20T17:21:52.814Z,97832.97
2022-08-20T17:27:01.417Z,97825.88
2022-08-20T17:32:19.656Z,97840.91
2022-08-20T17:37:25.509Z,97844.09
2022-08-20T17:42:27.641Z,97835.72
2022-08-20T17:47:34.623Z,97837.38
2022-08-20T17:52:48.745Z,97834.72
2022-08-20T17:57:56.578Z,97833.88
2022-08-20T18:03:14.963Z,97834.25
2022-08-20T18:08:29.336Z,97841.44
2022-08-20T18:13:55.164Z,97852.25
2022-08-20T18:18:59.667Z,97852.66
2022-08-20T18:24:14.825Z,97846.69
2022-08-20T18:29:27.595Z,97847.44
2022-08-20T18:34:29.623Z,97845.69
2022-08-20T18:39:34.574Z,97848.09
2022-08-20T18:44:43.967Z,97854.97
2022-08-20T18:49:47.044Z,97847.44
2022-08-20T18:54:58.148Z,97853.66
2022-08-20T19:00:08.435Z,97850.44
2022-08-20T19:05:12.207Z,97867.03
2022-08-20T19:10:39.749Z,97864.47
2022-08-20T19:15:51.936Z,97858.63
2022-08-20T19:20:59.267Z,97859.06
2022-08-20T19:26:03.241Z,97863.72
2022-08-20T19:31:14.420Z,97864.72
2022-08-20T19:36:28.174Z,97864.03
2022-08-20T19:41:39.771Z,97860.47
2022-08-20T19:46:45.177Z,97864.13
2022-08-20T19:51:48.036Z,97864.31
2022-08-20T19:56:49.989Z,97862.78
2022-08-20T20:02:02.805Z,97864.69
2022-08-20T20:07:09.086Z,97861.53
2022-08-20T20:12:22.590Z,97870.31
2022-08-20T20:17:30.292Z,97863.28
2022-08-20T20:22:47.029Z,97855.59
2022-08-20T20:27:58.731Z,97862.53
2022-08-20T20:33:11.001Z,97856.84
2022-08-20T20:38:27.560Z,97856.34
2022-08-20T20:43:39.066Z,97850.66
2022-08-20T20:49:09.941Z,97847.28
2022-08-20T20:54:40.437Z,97850.06
2022-08-20T20:59:42.600Z,97851.09
2022-08-20T21:04:44.787Z,97850.00
2022-08-20T21:09:47.582Z,97851.22
2022-08-20T21:14:49.971Z,97854.06
2022-08-20T21:19:52.561Z,97848.81
2022-08-20T21:24:54.204Z,97843.38
2022-08-20T21:29:56.154Z,97850.47
2022-08-20T21:34:57.776Z,97841.81
2022-08-20T21:39:59.483Z,97837.59
2022-08-20T21:45:01.352Z,97845.63
2022-08-20T21:50:04.375Z,97842.19
2022-08-20T21:55:07.265Z,97834.31
2022-08-20T22:00:17.811Z,97832.84
2022-08-20T22:05:19.502Z,97836.88
2022-08-20T22:10:21.196Z,97829.44
2022-08-20T22:15:22.866Z,97833.19
2022-08-20T22:20:25.000Z,97844.13
2022-08-20T22:25:26.693Z,97828.25
2022-08-20T22:30:28.493Z,97824.44
2022-08-20T22:35:31.721Z,97823.34
2022-08-20T22:40:33.403Z,97824.97
2022-08-20T22:45:35.727Z,97826.97
2022-08-20T22:50:38.265Z,97824.97
2022-08-20T22:55:40.108Z,97824.59
2022-08-20T23:00:44.546Z,97819.03
2022-08-20T23:05:47.537Z,97822.34
2022-08-20T23:10:49.204Z,97820.94
2022-08-20T23:15:53.493Z,97813.22
2022-08-20T23:20:59.042Z,97816.00
2022-08-20T23:26:00.987Z,97808.94
2022-08-20T23:31:02.834Z,97809.16
2022-08-20T23:36:09.091Z,97807.94
2022-08-20T23:41:10.856Z,97811.34
2022-08-20T23:46:13.082Z,97813.97
2022-08-20T23:51:14.726Z,97809.72
2022-08-20T23:56:17.333Z,97814.84
